Zurich, Switzerland
Current Conditions -  °F | °C
As of 5:50 AM on Wednesday 26 Nov 2014 (Local Time) from LSMD Reporting Station
Overcast Overcast  
Wind Chill: 45°   Ceiling: 800
Heat Index: 45°   Visibility: 6mi
Dew Point: 45°   Wind: 2mph
Humidity: 100%   Direction: 120°ESE
Pressure: 30"   Gusts: NA
Location:  47.38°N, 8.54°E
Report Text: LSMD 260450Z AUTO 12002KT 9000NDV SCT004 BKN008 OVC013 07/07 Q1016 RMK YLO
Loading
Personal Weather Stations






























Interactive Weather Map New forecast layout! Learn more

10-Day Weather Forecast

Advertisements
Track Severe Weather on mobile